Terminal Aerodrome Forecast
Issued by NWS Des Moines, IA

Home | Current Version | Previous Version | Text Only | Print | Product List | Glossary On
Versions: 1 2 3 4 5 6 7 8 9 10 11 12 13 14 15 16 17 18 19 20 21 22 23 24 25 26
000
FTUS43 KDMX 031135
TAFALO
TAF
KALO 031135Z 0312/0412 18014KT P6SM BKN150
     FM031600 20016G24KT P6SM SCT150
     FM040200 22010KT P6SM VCTS BKN050CB
     FM040800 28008KT P6SM VCSH OVC025=

USA.gov is the U.S. government's official web portal to all federal, state and local government web resources and services.